sensor_id;sensor_type;location;lat;lon;timestamp;pressure;altitude;pressure_sealevel;temperature;humidity
82152;BME280;71721;47.904;-122.188;2024-02-16T00:00:27;100673.22;;;0.41;40.83
82152;BME280;71721;47.904;-122.188;2024-02-16T00:02:52;100677.54;;;-0.84;40.52
82152;BME280;71721;47.904;-122.188;2024-02-16T00:05:18;100671.76;;;0.40;39.48
82152;BME280;71721;47.904;-122.188;2024-02-16T00:07:43;100679.31;;;-0.45;40.91
82152;BME280;71721;47.904;-122.188;2024-02-16T00:10:10;100679.10;;;-0.09;40.42
82152;BME280;71721;47.904;-122.188;2024-02-16T00:12:35;100679.32;;;0.09;40.22
82152;BME280;71721;47.904;-122.188;2024-02-16T00:15:03;100682.59;;;0.56;40.30
82152;BME280;71721;47.904;-122.188;2024-02-16T00:17:27;100687.66;;;-0.27;41.56
82152;BME280;71721;47.904;-122.188;2024-02-16T00:19:52;100684.38;;;-0.14;41.21
82152;BME280;71721;47.904;-122.188;2024-02-16T00:22:18;100681.29;;;0.70;39.73
82152;BME280;71721;47.904;-122.188;2024-02-16T00:24:43;100680.67;;;1.17;38.47
82152;BME280;71721;47.904;-122.188;2024-02-16T00:27:09;100679.81;;;1.39;38.26
82152;BME280;71721;47.904;-122.188;2024-02-16T00:29:35;100681.67;;;0.69;40.05
82152;BME280;71721;47.904;-122.188;2024-02-16T00:32:01;100688.32;;;-0.10;42.43
82152;BME280;71721;47.904;-122.188;2024-02-16T00:34:28;100691.72;;;-0.18;42.59
82152;BME280;71721;47.904;-122.188;2024-02-16T00:36:53;100691.57;;;-0.89;43.37
82152;BME280;71721;47.904;-122.188;2024-02-16T00:39:18;100688.35;;;-0.29;41.94
82152;BME280;71721;47.904;-122.188;2024-02-16T00:41:44;100682.74;;;-0.07;40.48
82152;BME280;71721;47.904;-122.188;2024-02-16T00:44:16;100680.47;;;0.44;40.01
82152;BME280;71721;47.904;-122.188;2024-02-16T00:46:36;100678.24;;;0.78;39.49
82152;BME280;71721;47.904;-122.188;2024-02-16T00:49:11;100680.31;;;0.77;40.07
82152;BME280;71721;47.904;-122.188;2024-02-16T00:51:26;100684.42;;;0.58;40.48
82152;BME280;71721;47.904;-122.188;2024-02-16T00:53:52;100687.62;;;0.31;40.87
82152;BME280;71721;47.904;-122.188;2024-02-16T00:56:18;100685.32;;;0.76;40.79
82152;BME280;71721;47.904;-122.188;2024-02-16T00:58:44;100689.03;;;1.06;40.53
82152;BME280;71721;47.904;-122.188;2024-02-16T01:01:09;100697.58;;;-0.88;42.30
82152;BME280;71721;47.904;-122.188;2024-02-16T01:03:35;100693.24;;;0.21;41.08
82152;BME280;71721;47.904;-122.188;2024-02-16T01:06:00;100698.51;;;-0.32;41.31
82152;BME280;71721;47.904;-122.188;2024-02-16T01:08:26;100696.18;;;-0.35;40.89
82152;BME280;71721;47.904;-122.188;2024-02-16T01:10:52;100694.82;;;-1.32;41.47
82152;BME280;71721;47.904;-122.188;2024-02-16T01:13:18;100694.00;;;0.06;40.43
82152;BME280;71721;47.904;-122.188;2024-02-16T01:15:44;100692.56;;;-0.38;40.89
82152;BME280;71721;47.904;-122.188;2024-02-16T01:18:09;100690.30;;;0.01;40.68
82152;BME280;71721;47.904;-122.188;2024-02-16T01:20:35;100690.59;;;0.55;39.72
82152;BME280;71721;47.904;-122.188;2024-02-16T01:23:01;100700.46;;;-0.47;40.85
82152;BME280;71721;47.904;-122.188;2024-02-16T01:25:26;100699.29;;;0.20;40.06
82152;BME280;71721;47.904;-122.188;2024-02-16T01:27:52;100707.40;;;-0.05;40.76
82152;BME280;71721;47.904;-122.188;2024-02-16T01:30:17;100707.78;;;-0.92;41.69
82152;BME280;71721;47.904;-122.188;2024-02-16T01:32:42;100704.93;;;-1.17;42.49
82152;BME280;71721;47.904;-122.188;2024-02-16T01:35:08;100705.70;;;-2.07;43.79
82152;BME280;71721;47.904;-122.188;2024-02-16T01:37:34;100707.88;;;-0.80;42.18
82152;BME280;71721;47.904;-122.188;2024-02-16T01:39:59;100708.94;;;-1.31;42.69
82152;BME280;71721;47.904;-122.188;2024-02-16T01:42:25;100711.92;;;-1.05;43.01
82152;BME280;71721;47.904;-122.188;2024-02-16T01:44:51;100706.13;;;-1.67;43.02
82152;BME280;71721;47.904;-122.188;2024-02-16T01:47:19;100706.83;;;-1.73;42.72
82152;BME280;71721;47.904;-122.188;2024-02-16T01:49:43;100712.45;;;-0.48;41.12
82152;BME280;71721;47.904;-122.188;2024-02-16T01:52:14;100716.53;;;0.15;40.03
82152;BME280;71721;47.904;-122.188;2024-02-16T01:54:34;100717.56;;;-0.41;40.80
82152;BME280;71721;47.904;-122.188;2024-02-16T01:57:00;100718.33;;;-0.64;41.35
82152;BME280;71721;47.904;-122.188;2024-02-16T01:59:26;100719.68;;;-1.08;42.23
82152;BME280;71721;47.904;-122.188;2024-02-16T02:01:52;100727.54;;;-0.66;41.47
82152;BME280;71721;47.904;-122.188;2024-02-16T02:04:17;100731.27;;;-0.73;41.41
82152;BME280;71721;47.904;-122.188;2024-02-16T02:06:43;100735.51;;;-2.33;43.18
82152;BME280;71721;47.904;-122.188;2024-02-16T02:09:09;100735.63;;;-1.68;42.52
82152;BME280;71721;47.904;-122.188;2024-02-16T02:11:34;100739.78;;;0.24;40.53
82152;BME280;71721;47.904;-122.188;2024-02-16T02:14:00;100741.43;;;0.23;40.11
82152;BME280;71721;47.904;-122.188;2024-02-16T02:16:26;100743.36;;;0.08;40.44
82152;BME280;71721;47.904;-122.188;2024-02-16T02:18:52;100748.34;;;-1.07;41.72
82152;BME280;71721;47.904;-122.188;2024-02-16T02:21:17;100750.96;;;-0.93;41.72
82152;BME280;71721;47.904;-122.188;2024-02-16T02:23:43;100751.70;;;-0.94;41.26
82152;BME280;71721;47.904;-122.188;2024-02-16T02:26:09;100752.12;;;-1.31;42.15
82152;BME280;71721;47.904;-122.188;2024-02-16T02:28:35;100759.07;;;-1.53;43.03
82152;BME280;71721;47.904;-122.188;2024-02-16T02:31:00;100759.92;;;-1.73;43.57
82152;BME280;71721;47.904;-122.188;2024-02-16T02:33:26;100762.57;;;-1.29;43.19
82152;BME280;71721;47.904;-122.188;2024-02-16T02:35:52;100768.58;;;-1.10;41.31
82152;BME280;71721;47.904;-122.188;2024-02-16T02:38:18;100773.77;;;-0.73;40.41
82152;BME280;71721;47.904;-122.188;2024-02-16T02:40:43;100778.95;;;-0.56;40.03
82152;BME280;71721;47.904;-122.188;2024-02-16T02:43:09;100782.85;;;-0.08;39.44
82152;BME280;71721;47.904;-122.188;2024-02-16T02:45:38;100786.28;;;-0.22;40.45
82152;BME280;71721;47.904;-122.188;2024-02-16T02:48:02;100791.96;;;-0.71;41.91
82152;BME280;71721;47.904;-122.188;2024-02-16T02:50:27;100797.95;;;-3.35;46.04
82152;BME280;71721;47.904;-122.188;2024-02-16T02:52:53;100804.62;;;-4.15;47.91
82152;BME280;71721;47.904;-122.188;2024-02-16T02:55:18;100807.02;;;-3.33;46.93
82152;BME280;71721;47.904;-122.188;2024-02-16T02:57:45;100804.84;;;-1.67;44.15
82152;BME280;71721;47.904;-122.188;2024-02-16T03:00:15;100807.45;;;-2.04;44.47
82152;BME280;71721;47.904;-122.188;2024-02-16T03:02:36;100808.64;;;-2.45;45.01
82152;BME280;71721;47.904;-122.188;2024-02-16T03:05:01;100811.54;;;-1.55;43.43
82152;BME280;71721;47.904;-122.188;2024-02-16T03:07:32;100810.63;;;-1.10;43.22
82152;BME280;71721;47.904;-122.188;2024-02-16T03:09:53;100815.26;;;-1.48;43.06
82152;BME280;71721;47.904;-122.188;2024-02-16T03:12:19;100812.22;;;-0.79;41.56
82152;BME280;71721;47.904;-122.188;2024-02-16T03:14:45;100816.72;;;-0.71;41.01
82152;BME280;71721;47.904;-122.188;2024-02-16T03:17:10;100816.86;;;-0.46;40.47
82152;BME280;71721;47.904;-122.188;2024-02-16T03:19:36;100815.53;;;-0.82;40.87
82152;BME280;71721;47.904;-122.188;2024-02-16T03:22:02;100815.05;;;-0.68;40.02
82152;BME280;71721;47.904;-122.188;2024-02-16T03:24:33;100817.26;;;-0.46;39.88
82152;BME280;71721;47.904;-122.188;2024-02-16T03:26:55;100822.76;;;-1.23;41.04
82152;BME280;71721;47.904;-122.188;2024-02-16T03:29:19;100825.32;;;-1.26;40.84
82152;BME280;71721;47.904;-122.188;2024-02-16T03:31:45;100825.78;;;-1.18;40.73
82152;BME280;71721;47.904;-122.188;2024-02-16T03:34:11;100828.57;;;-0.75;40.97
82152;BME280;71721;47.904;-122.188;2024-02-16T03:36:37;100827.29;;;-0.59;39.92
82152;BME280;71721;47.904;-122.188;2024-02-16T03:39:08;100829.33;;;-0.91;41.60
82152;BME280;71721;47.904;-122.188;2024-02-16T03:41:28;100831.18;;;-0.76;39.78
82152;BME280;71721;47.904;-122.188;2024-02-16T03:43:54;100829.33;;;-0.46;40.09
82152;BME280;71721;47.904;-122.188;2024-02-16T03:46:20;100833.33;;;-0.39;39.26
82152;BME280;71721;47.904;-122.188;2024-02-16T03:48:46;100838.78;;;-1.04;40.13
82152;BME280;71721;47.904;-122.188;2024-02-16T03:51:11;100837.55;;;-0.57;40.20
82152;BME280;71721;47.904;-122.188;2024-02-16T03:53:38;100838.71;;;-0.24;39.56
82152;BME280;71721;47.904;-122.188;2024-02-16T03:56:03;100842.89;;;0.40;38.69
82152;BME280;71721;47.904;-122.188;2024-02-16T03:58:29;100844.32;;;-0.31;39.97
82152;BME280;71721;47.904;-122.188;2024-02-16T04:00:55;100849.98;;;-1.30;40.53
82152;BME280;71721;47.904;-122.188;2024-02-16T04:03:20;100858.20;;;-2.22;41.94
82152;BME280;71721;47.904;-122.188;2024-02-16T04:05:51;100861.43;;;-2.36;42.16
82152;BME280;71721;47.904;-122.188;2024-02-16T04:08:12;100859.61;;;-1.14;40.50
82152;BME280;71721;47.904;-122.188;2024-02-16T04:10:37;100862.65;;;-0.70;40.18
82152;BME280;71721;47.904;-122.188;2024-02-16T04:13:03;100866.83;;;-1.56;41.64
82152;BME280;71721;47.904;-122.188;2024-02-16T04:15:29;100867.53;;;-1.32;39.87
82152;BME280;71721;47.904;-122.188;2024-02-16T04:17:55;100876.15;;;-1.69;41.39
82152;BME280;71721;47.904;-122.188;2024-02-16T04:20:21;100877.52;;;-0.55;40.30
82152;BME280;71721;47.904;-122.188;2024-02-16T04:22:47;100880.08;;;-0.43;40.48
82152;BME280;71721;47.904;-122.188;2024-02-16T04:25:12;100886.52;;;-1.16;40.72
82152;BME280;71721;47.904;-122.188;2024-02-16T04:27:38;100889.89;;;-1.55;40.89
82152;BME280;71721;47.904;-122.188;2024-02-16T04:30:05;100888.30;;;-0.64;39.99
82152;BME280;71721;47.904;-122.188;2024-02-16T04:32:30;100892.78;;;-0.97;40.50
82152;BME280;71721;47.904;-122.188;2024-02-16T04:34:55;100893.49;;;-1.72;40.92
82152;BME280;71721;47.904;-122.188;2024-02-16T04:37:21;100892.77;;;-1.93;41.11
82152;BME280;71721;47.904;-122.188;2024-02-16T04:39:47;100895.35;;;-2.64;42.20
82152;BME280;71721;47.904;-122.188;2024-02-16T04:42:18;100894.68;;;-1.10;40.74
82152;BME280;71721;47.904;-122.188;2024-02-16T04:44:40;100901.49;;;-1.05;40.18
82152;BME280;71721;47.904;-122.188;2024-02-16T04:47:04;100903.21;;;-1.29;39.55
82152;BME280;71721;47.904;-122.188;2024-02-16T04:49:30;100911.02;;;-1.33;39.67
82152;BME280;71721;47.904;-122.188;2024-02-16T04:51:56;100912.13;;;-0.87;39.56
82152;BME280;71721;47.904;-122.188;2024-02-16T04:54:22;100916.37;;;-1.18;40.03
82152;BME280;71721;47.904;-122.188;2024-02-16T04:56:48;100915.77;;;-1.83;39.84
82152;BME280;71721;47.904;-122.188;2024-02-16T04:59:13;100918.81;;;-0.86;39.53
82152;BME280;71721;47.904;-122.188;2024-02-16T05:01:39;100921.97;;;-2.33;40.38
82152;BME280;71721;47.904;-122.188;2024-02-16T05:04:05;100925.13;;;-1.39;39.54
82152;BME280;71721;47.904;-122.188;2024-02-16T05:06:31;100926.52;;;-2.09;40.69
82152;BME280;71721;47.904;-122.188;2024-02-16T05:08:57;100928.93;;;-1.20;39.49
82152;BME280;71721;47.904;-122.188;2024-02-16T05:11:22;100934.17;;;-2.56;41.27
82152;BME280;71721;47.904;-122.188;2024-02-16T05:13:48;100936.47;;;-2.07;41.25
82152;BME280;71721;47.904;-122.188;2024-02-16T05:16:14;100939.80;;;-2.65;42.30
82152;BME280;71721;47.904;-122.188;2024-02-16T05:18:39;100946.05;;;-2.72;41.41
82152;BME280;71721;47.904;-122.188;2024-02-16T05:21:05;100949.83;;;-1.82;40.53
82152;BME280;71721;47.904;-122.188;2024-02-16T05:23:31;100959.50;;;-2.45;41.87
82152;BME280;71721;47.904;-122.188;2024-02-16T05:26:07;100960.21;;;-2.43;41.54
82152;BME280;71721;47.904;-122.188;2024-02-16T05:28:23;100968.50;;;-3.06;42.04
82152;BME280;71721;47.904;-122.188;2024-02-16T05:30:49;100968.44;;;-2.08;41.53
82152;BME280;71721;47.904;-122.188;2024-02-16T05:33:15;100975.69;;;-3.80;42.49
82152;BME280;71721;47.904;-122.188;2024-02-16T05:35:42;100976.74;;;-2.25;40.80
82152;BME280;71721;47.904;-122.188;2024-02-16T05:38:06;100979.64;;;-2.19;40.66
82152;BME280;71721;47.904;-122.188;2024-02-16T05:40:32;100991.30;;;-3.02;41.42
82152;BME280;71721;47.904;-122.188;2024-02-16T05:42:58;100994.39;;;-2.84;41.78
82152;BME280;71721;47.904;-122.188;2024-02-16T05:45:24;100999.97;;;-3.82;42.41
82152;BME280;71721;47.904;-122.188;2024-02-16T05:47:50;101003.90;;;-3.88;42.37
82152;BME280;71721;47.904;-122.188;2024-02-16T05:50:15;101007.21;;;-3.42;42.37
82152;BME280;71721;47.904;-122.188;2024-02-16T05:52:42;101008.85;;;-3.09;41.97
82152;BME280;71721;47.904;-122.188;2024-02-16T05:55:08;101009.43;;;-2.63;40.92
82152;BME280;71721;47.904;-122.188;2024-02-16T05:57:32;101013.63;;;-2.87;41.35
82152;BME280;71721;47.904;-122.188;2024-02-16T05:59:58;101014.79;;;-2.58;41.50
82152;BME280;71721;47.904;-122.188;2024-02-16T06:02:24;101016.25;;;-2.88;41.40
82152;BME280;71721;47.904;-122.188;2024-02-16T06:04:50;101017.76;;;-2.81;41.32
82152;BME280;71721;47.904;-122.188;2024-02-16T06:07:17;101021.42;;;-2.80;40.90
82152;BME280;71721;47.904;-122.188;2024-02-16T06:09:42;101025.15;;;-3.32;41.83
82152;BME280;71721;47.904;-122.188;2024-02-16T06:12:08;101025.83;;;-4.55;42.53
82152;BME280;71721;47.904;-122.188;2024-02-16T06:14:34;101033.64;;;-4.70;42.54
82152;BME280;71721;47.904;-122.188;2024-02-16T06:16:59;101039.28;;;-3.54;41.33
82152;BME280;71721;47.904;-122.188;2024-02-16T06:19:25;101035.19;;;-3.41;42.28
82152;BME280;71721;47.904;-122.188;2024-02-16T06:21:50;101033.42;;;-4.33;42.75
82152;BME280;71721;47.904;-122.188;2024-02-16T06:24:15;101033.60;;;-4.77;43.46
82152;BME280;71721;47.904;-122.188;2024-02-16T06:26:40;101041.22;;;-4.51;42.92
82152;BME280;71721;47.904;-122.188;2024-02-16T06:29:06;101042.65;;;-4.37;42.41
82152;BME280;71721;47.904;-122.188;2024-02-16T06:31:31;101045.47;;;-4.53;42.60
82152;BME280;71721;47.904;-122.188;2024-02-16T06:33:57;101047.08;;;-4.33;42.16
82152;BME280;71721;47.904;-122.188;2024-02-16T06:36:22;101047.66;;;-3.79;41.20
82152;BME280;71721;47.904;-122.188;2024-02-16T06:38:48;101056.98;;;-3.48;41.39
82152;BME280;71721;47.904;-122.188;2024-02-16T06:41:14;101064.39;;;-2.83;40.77
82152;BME280;71721;47.904;-122.188;2024-02-16T06:43:38;101065.35;;;-4.25;42.03
82152;BME280;71721;47.904;-122.188;2024-02-16T06:46:04;101070.45;;;-5.33;43.38
82152;BME280;71721;47.904;-122.188;2024-02-16T06:48:29;101067.09;;;-3.68;41.63
82152;BME280;71721;47.904;-122.188;2024-02-16T06:50:54;101063.24;;;-4.48;42.27
82152;BME280;71721;47.904;-122.188;2024-02-16T06:53:24;101067.78;;;-4.75;43.26
82152;BME280;71721;47.904;-122.188;2024-02-16T06:55:44;101074.30;;;-5.59;43.91
82152;BME280;71721;47.904;-122.188;2024-02-16T06:58:09;101075.81;;;-3.72;42.26
82152;BME280;71721;47.904;-122.188;2024-02-16T07:00:35;101081.52;;;-3.80;41.64
82152;BME280;71721;47.904;-122.188;2024-02-16T07:02:59;101089.96;;;-5.30;43.51
82152;BME280;71721;47.904;-122.188;2024-02-16T07:05:29;101091.09;;;-3.74;41.24
82152;BME280;71721;47.904;-122.188;2024-02-16T07:07:49;101092.08;;;-3.74;41.84
82152;BME280;71721;47.904;-122.188;2024-02-16T07:10:14;101099.18;;;-5.74;43.44
82152;BME280;71721;47.904;-122.188;2024-02-16T07:12:39;101103.44;;;-4.07;41.98
82152;BME280;71721;47.904;-122.188;2024-02-16T07:15:04;101104.40;;;-4.41;41.78
82152;BME280;71721;47.904;-122.188;2024-02-16T07:17:29;101102.38;;;-4.92;41.97
82152;BME280;71721;47.904;-122.188;2024-02-16T07:19:54;101102.28;;;-5.31;42.38
82152;BME280;71721;47.904;-122.188;2024-02-16T07:22:20;101101.09;;;-4.42;41.85
82152;BME280;71721;47.904;-122.188;2024-02-16T07:24:44;101099.15;;;-4.43;42.13
82152;BME280;71721;47.904;-122.188;2024-02-16T07:27:09;101099.13;;;-5.81;43.40
82152;BME280;71721;47.904;-122.188;2024-02-16T07:29:34;101101.60;;;-4.18;42.16
82152;BME280;71721;47.904;-122.188;2024-02-16T07:32:00;101102.32;;;-4.09;41.69
82152;BME280;71721;47.904;-122.188;2024-02-16T07:34:25;101110.67;;;-4.81;43.02
82152;BME280;71721;47.904;-122.188;2024-02-16T07:36:49;101113.36;;;-5.30;42.78
82152;BME280;71721;47.904;-122.188;2024-02-16T07:39:16;101118.27;;;-4.43;41.97
82152;BME280;71721;47.904;-122.188;2024-02-16T07:41:40;101119.09;;;-4.33;41.84
82152;BME280;71721;47.904;-122.188;2024-02-16T07:44:04;101120.67;;;-5.83;43.65
82152;BME280;71721;47.904;-122.188;2024-02-16T07:46:30;101123.16;;;-5.09;42.72
82152;BME280;71721;47.904;-122.188;2024-02-16T07:48:56;101127.98;;;-4.77;42.14
82152;BME280;71721;47.904;-122.188;2024-02-16T07:51:21;101133.49;;;-4.40;41.79
82152;BME280;71721;47.904;-122.188;2024-02-16T07:53:47;101135.47;;;-4.32;41.56
82152;BME280;71721;47.904;-122.188;2024-02-16T07:56:11;101139.59;;;-5.85;42.36
82152;BME280;71721;47.904;-122.188;2024-02-16T07:58:36;101140.06;;;-5.08;41.89
82152;BME280;71721;47.904;-122.188;2024-02-16T08:01:01;101135.57;;;-6.31;42.76
82152;BME280;71721;47.904;-122.188;2024-02-16T08:03:26;101133.73;;;-5.56;42.51
82152;BME280;71721;47.904;-122.188;2024-02-16T08:05:51;101132.99;;;-4.65;41.82
82152;BME280;71721;47.904;-122.188;2024-02-16T08:08:16;101131.18;;;-5.91;44.01
82152;BME280;71721;47.904;-122.188;2024-02-16T08:10:41;101130.05;;;-5.74;43.79
82152;BME280;71721;47.904;-122.188;2024-02-16T08:13:06;101137.65;;;-5.24;43.32
82152;BME280;71721;47.904;-122.188;2024-02-16T08:15:31;101140.48;;;-4.44;42.56
82152;BME280;71721;47.904;-122.188;2024-02-16T08:17:56;101137.38;;;-5.83;43.61
82152;BME280;71721;47.904;-122.188;2024-02-16T08:20:21;101138.36;;;-5.53;43.66
82152;BME280;71721;47.904;-122.188;2024-02-16T08:22:46;101139.53;;;-5.27;43.01
82152;BME280;71721;47.904;-122.188;2024-02-16T08:25:13;101145.90;;;-4.44;42.61
82152;BME280;71721;47.904;-122.188;2024-02-16T08:27:36;101147.25;;;-5.67;43.20
82152;BME280;71721;47.904;-122.188;2024-02-16T08:30:03;101148.91;;;-4.89;42.79
82152;BME280;71721;47.904;-122.188;2024-02-16T08:32:26;101149.90;;;-5.07;42.55
82152;BME280;71721;47.904;-122.188;2024-02-16T08:34:52;101151.07;;;-5.18;42.53
82152;BME280;71721;47.904;-122.188;2024-02-16T08:37:16;101155.21;;;-5.65;43.23
82152;BME280;71721;47.904;-122.188;2024-02-16T08:39:41;101157.35;;;-4.92;42.71
82152;BME280;71721;47.904;-122.188;2024-02-16T08:42:07;101163.15;;;-5.43;43.50
82152;BME280;71721;47.904;-122.188;2024-02-16T08:44:31;101172.10;;;-6.55;44.91
82152;BME280;71721;47.904;-122.188;2024-02-16T08:46:57;101170.90;;;-4.99;43.39
82152;BME280;71721;47.904;-122.188;2024-02-16T08:49:22;101178.80;;;-5.13;42.69
82152;BME280;71721;47.904;-122.188;2024-02-16T08:51:48;101182.12;;;-5.43;42.67
82152;BME280;71721;47.904;-122.188;2024-02-16T08:54:12;101190.47;;;-4.74;42.60
82152;BME280;71721;47.904;-122.188;2024-02-16T08:56:37;101193.86;;;-5.69;43.04
82152;BME280;71721;47.904;-122.188;2024-02-16T08:59:02;101199.92;;;-5.48;43.57
82152;BME280;71721;47.904;-122.188;2024-02-16T09:01:32;101200.53;;;-5.10;43.00
82152;BME280;71721;47.904;-122.188;2024-02-16T09:03:52;101205.48;;;-5.94;43.25
82152;BME280;71721;47.904;-122.188;2024-02-16T09:06:17;101212.70;;;-5.53;43.04
82152;BME280;71721;47.904;-122.188;2024-02-16T09:08:43;101219.60;;;-5.31;42.35
82152;BME280;71721;47.904;-122.188;2024-02-16T09:11:12;101216.71;;;-4.84;41.89
82152;BME280;71721;47.904;-122.188;2024-02-16T09:13:32;101222.27;;;-5.32;42.57
82152;BME280;71721;47.904;-122.188;2024-02-16T09:16:03;101228.76;;;-5.38;42.98
82152;BME280;71721;47.904;-122.188;2024-02-16T09:18:28;101230.62;;;-5.28;42.64
82152;BME280;71721;47.904;-122.188;2024-02-16T09:20:47;101232.06;;;-6.09;44.07
82152;BME280;71721;47.904;-122.188;2024-02-16T09:23:13;101229.34;;;-5.87;43.84
82152;BME280;71721;47.904;-122.188;2024-02-16T09:25:38;101235.17;;;-5.57;43.26
82152;BME280;71721;47.904;-122.188;2024-02-16T09:28:03;101236.23;;;-5.80;43.54
82152;BME280;71721;47.904;-122.188;2024-02-16T09:30:28;101236.50;;;-5.54;42.98
82152;BME280;71721;47.904;-122.188;2024-02-16T09:32:54;101234.34;;;-5.71;42.48
82152;BME280;71721;47.904;-122.188;2024-02-16T09:35:23;101223.68;;;-4.38;41.00
82152;BME280;71721;47.904;-122.188;2024-02-16T09:37:43;101228.05;;;-4.65;41.52
82152;BME280;71721;47.904;-122.188;2024-02-16T09:40:11;101225.28;;;-4.40;41.18
82152;BME280;71721;47.904;-122.188;2024-02-16T09:42:35;101226.20;;;-4.64;41.28
82152;BME280;71721;47.904;-122.188;2024-02-16T09:44:58;101229.64;;;-5.17;41.32
82152;BME280;71721;47.904;-122.188;2024-02-16T09:47:25;101231.81;;;-5.08;41.84
82152;BME280;71721;47.904;-122.188;2024-02-16T09:49:48;101237.67;;;-4.94;42.21
82152;BME280;71721;47.904;-122.188;2024-02-16T09:52:18;101238.26;;;-6.05;42.64
82152;BME280;71721;47.904;-122.188;2024-02-16T09:54:40;101233.31;;;-4.48;41.09
82152;BME280;71721;47.904;-122.188;2024-02-16T09:57:04;101238.49;;;-4.29;40.50
82152;BME280;71721;47.904;-122.188;2024-02-16T09:59:29;101242.54;;;-5.15;41.70
82152;BME280;71721;47.904;-122.188;2024-02-16T10:02:00;101241.33;;;-6.39;43.02
82152;BME280;71721;47.904;-122.188;2024-02-16T10:04:23;101237.53;;;-6.19;43.70
82152;BME280;71721;47.904;-122.188;2024-02-16T10:06:47;101236.99;;;-5.32;42.88
82152;BME280;71721;47.904;-122.188;2024-02-16T10:09:09;101242.76;;;-5.60;43.36
82152;BME280;71721;47.904;-122.188;2024-02-16T10:11:35;101246.69;;;-5.88;42.65
82152;BME280;71721;47.904;-122.188;2024-02-16T10:14:01;101243.85;;;-5.07;41.36
82152;BME280;71721;47.904;-122.188;2024-02-16T10:16:24;101242.54;;;-4.22;40.34
82152;BME280;71721;47.904;-122.188;2024-02-16T10:18:49;101244.32;;;-4.54;40.14
82152;BME280;71721;47.904;-122.188;2024-02-16T10:21:23;101246.64;;;-4.94;40.56
82152;BME280;71721;47.904;-122.188;2024-02-16T10:23:39;101242.10;;;-4.48;40.41
82152;BME280;71721;47.904;-122.188;2024-02-16T10:26:05;101243.16;;;-4.42;40.09
82152;BME280;71721;47.904;-122.188;2024-02-16T10:28:30;101241.36;;;-4.09;39.88
82152;BME280;71721;47.904;-122.188;2024-02-16T10:31:01;101239.65;;;-4.61;40.98
82152;BME280;71721;47.904;-122.188;2024-02-16T10:33:20;101240.92;;;-4.72;40.89
82152;BME280;71721;47.904;-122.188;2024-02-16T10:35:45;101238.71;;;-4.60;40.68
82152;BME280;71721;47.904;-122.188;2024-02-16T10:38:10;101245.12;;;-4.65;41.25
82152;BME280;71721;47.904;-122.188;2024-02-16T10:40:38;101243.76;;;-4.05;40.02
82152;BME280;71721;47.904;-122.188;2024-02-16T10:43:03;101237.44;;;-3.53;39.62
82152;BME280;71721;47.904;-122.188;2024-02-16T10:45:26;101236.25;;;-3.78;40.20
82152;BME280;71721;47.904;-122.188;2024-02-16T10:47:51;101235.23;;;-5.23;41.34
82152;BME280;71721;47.904;-122.188;2024-02-16T10:50:15;101234.51;;;-5.21;41.24
82152;BME280;71721;47.904;-122.188;2024-02-16T10:52:42;101239.22;;;-4.95;40.81
82152;BME280;71721;47.904;-122.188;2024-02-16T10:55:07;101237.62;;;-4.49;41.04
82152;BME280;71721;47.904;-122.188;2024-02-16T10:57:30;101238.75;;;-4.62;41.14
82152;BME280;71721;47.904;-122.188;2024-02-16T10:59:56;101233.55;;;-4.59;40.29
82152;BME280;71721;47.904;-122.188;2024-02-16T11:02:20;101237.15;;;-4.85;41.35
82152;BME280;71721;47.904;-122.188;2024-02-16T11:04:46;101234.59;;;-4.78;40.57
82152;BME280;71721;47.904;-122.188;2024-02-16T11:07:14;101242.22;;;-6.31;41.84
82152;BME280;71721;47.904;-122.188;2024-02-16T11:09:38;101240.17;;;-5.32;41.35
82152;BME280;71721;47.904;-122.188;2024-02-16T11:12:02;101247.00;;;-5.57;41.56
82152;BME280;71721;47.904;-122.188;2024-02-16T11:14:35;101246.73;;;-6.04;41.81
82152;BME280;71721;47.904;-122.188;2024-02-16T11:16:54;101247.34;;;-5.06;41.09
82152;BME280;71721;47.904;-122.188;2024-02-16T11:19:17;101248.46;;;-6.13;41.27
82152;BME280;71721;47.904;-122.188;2024-02-16T11:21:55;101245.75;;;-4.92;39.92
82152;BME280;71721;47.904;-122.188;2024-02-16T11:24:07;101246.92;;;-4.80;40.11
82152;BME280;71721;47.904;-122.188;2024-02-16T11:26:31;101247.89;;;-4.34;38.67
82152;BME280;71721;47.904;-122.188;2024-02-16T11:28:56;101245.35;;;-4.36;38.96
82152;BME280;71721;47.904;-122.188;2024-02-16T11:31:22;101251.33;;;-5.10;40.65
82152;BME280;71721;47.904;-122.188;2024-02-16T11:33:46;101249.79;;;-5.18;40.31
82152;BME280;71721;47.904;-122.188;2024-02-16T11:36:12;101251.17;;;-5.52;40.67
82152;BME280;71721;47.904;-122.188;2024-02-16T11:38:36;101249.65;;;-5.53;40.49
82152;BME280;71721;47.904;-122.188;2024-02-16T11:41:04;101250.32;;;-5.67;40.56
82152;BME280;71721;47.904;-122.188;2024-02-16T11:43:32;101248.94;;;-4.79;40.30
82152;BME280;71721;47.904;-122.188;2024-02-16T11:45:53;101252.71;;;-5.32;40.33
82152;BME280;71721;47.904;-122.188;2024-02-16T11:48:21;101253.41;;;-5.66;40.38
82152;BME280;71721;47.904;-122.188;2024-02-16T11:50:43;101254.99;;;-5.51;40.25
82152;BME280;71721;47.904;-122.188;2024-02-16T11:53:08;101259.37;;;-6.12;41.48
82152;BME280;71721;47.904;-122.188;2024-02-16T11:55:33;101260.79;;;-6.42;41.39
82152;BME280;71721;47.904;-122.188;2024-02-16T11:57:58;101261.98;;;-5.78;39.78
82152;BME280;71721;47.904;-122.188;2024-02-16T12:00:23;101265.22;;;-5.38;39.93
82152;BME280;71721;47.904;-122.188;2024-02-16T12:02:58;101266.48;;;-6.14;40.41
82152;BME280;71721;47.904;-122.188;2024-02-16T12:05:14;101266.83;;;-5.29;39.25
82152;BME280;71721;47.904;-122.188;2024-02-16T12:07:38;101268.12;;;-5.06;39.03
82152;BME280;71721;47.904;-122.188;2024-02-16T12:10:05;101267.21;;;-4.78;38.64